Terminal Aerodrome Forecast
Issued by NWS

Home | Current Version | Previous Version | Text Only | Print | Product List | Glossary On
Versions: 1 2 3 4 5 6 7 8 9 10 11 12 13
000
FTUS41 KPBZ 211735
TAFFKL
TAF
KFKL 211735Z 2118/2218 17009KT P6SM BKN200
     FM220900 20005KT 5SM BR VCSH BKN025
     FM221100 21005KT 5SM BR BKN015
     FM221300 21005KT 5SM BR BKN008
     FM221500 21006KT P6SM BKN015
      AMD LTD TO CLD VIS AND WIND=

USA.gov is the U.S. government's official web portal to all federal, state and local government web resources and services.